Omaha, Georgia
Current Conditions -  °F | °C
As of 5:03 AM on Tuesday 21 Oct 2014 (Local Time) from KLSF Reporting Station
Haze Haze  
Wind Chill: 48°   Ceiling: Unl
Heat Index: 48°   Visibility: 0.75mi
Dew Point: 48°   Wind: 0mph
Humidity: 100%   Direction: NA
Pressure: 30"   Gusts: NA
Location:  32.15°N, 85.01°W
Report Text: KLSF 210903Z AUTO 00000KT 3/4SM R33/2400FT BR CLR 09/09 A3000 RMK AO2
Loading
Personal Weather Stations






























Interactive Weather Map
Tropical Storm Tracking
New forecast layout! Learn more

10-Day Weather Forecast

Advertisements
Track Severe Weather on mobile